sensor_id;sensor_type;location;lat;lon;timestamp;P1;durP1;ratioP1;P2;durP2;ratioP2
62941;SDS011;49042;47.318;19.874;2022-12-07T00:01:51;26.27;;;13.15;;
62941;SDS011;49042;47.318;19.874;2022-12-07T00:04:53;25.02;;;13.38;;
62941;SDS011;49042;47.318;19.874;2022-12-07T00:07:54;24.08;;;13.50;;
62941;SDS011;49042;47.318;19.874;2022-12-07T00:11:00;22.90;;;13.10;;
62941;SDS011;49042;47.318;19.874;2022-12-07T00:14:05;23.08;;;12.65;;
62941;SDS011;49042;47.318;19.874;2022-12-07T00:17:09;22.48;;;13.00;;
62941;SDS011;49042;47.318;19.874;2022-12-07T00:20:10;23.05;;;12.45;;
62941;SDS011;49042;47.318;19.874;2022-12-07T00:23:12;21.52;;;12.93;;
62941;SDS011;49042;47.318;19.874;2022-12-07T00:26:18;20.08;;;13.15;;
62941;SDS011;49042;47.318;19.874;2022-12-07T00:29:22;21.55;;;12.32;;
62941;SDS011;49042;47.318;19.874;2022-12-07T00:32:24;22.05;;;12.48;;
62941;SDS011;49042;47.318;19.874;2022-12-07T00:35:26;22.00;;;11.73;;
62941;SDS011;49042;47.318;19.874;2022-12-07T00:38:28;19.00;;;11.85;;
62941;SDS011;49042;47.318;19.874;2022-12-07T00:41:31;20.02;;;11.52;;
62941;SDS011;49042;47.318;19.874;2022-12-07T00:44:33;19.37;;;11.82;;
62941;SDS011;49042;47.318;19.874;2022-12-07T00:47:34;20.75;;;11.18;;
62941;SDS011;49042;47.318;19.874;2022-12-07T00:50:36;18.67;;;11.57;;
62941;SDS011;49042;47.318;19.874;2022-12-07T00:53:38;21.17;;;12.15;;
62941;SDS011;49042;47.318;19.874;2022-12-07T00:56:42;20.60;;;12.77;;
62941;SDS011;49042;47.318;19.874;2022-12-07T00:59:44;19.80;;;12.02;;
62941;SDS011;49042;47.318;19.874;2022-12-07T01:02:45;21.98;;;11.88;;
62941;SDS011;49042;47.318;19.874;2022-12-07T01:05:51;22.52;;;12.60;;
62941;SDS011;49042;47.318;19.874;2022-12-07T01:08:54;20.20;;;11.75;;
62941;SDS011;49042;47.318;19.874;2022-12-07T01:11:56;19.52;;;12.40;;
62941;SDS011;49042;47.318;19.874;2022-12-07T01:14:57;22.30;;;12.05;;
62941;SDS011;49042;47.318;19.874;2022-12-07T01:17:59;26.48;;;13.13;;
62941;SDS011;49042;47.318;19.874;2022-12-07T01:21:05;24.67;;;13.13;;
62941;SDS011;49042;47.318;19.874;2022-12-07T01:24:12;23.42;;;12.20;;
62941;SDS011;49042;47.318;19.874;2022-12-07T01:27:14;23.25;;;12.75;;
62941;SDS011;49042;47.318;19.874;2022-12-07T01:30:16;23.25;;;12.85;;
62941;SDS011;49042;47.318;19.874;2022-12-07T01:33:18;23.27;;;12.82;;
62941;SDS011;49042;47.318;19.874;2022-12-07T01:36:24;18.98;;;12.35;;
62941;SDS011;49042;47.318;19.874;2022-12-07T01:39:27;24.98;;;14.05;;
62941;SDS011;49042;47.318;19.874;2022-12-07T01:42:29;22.87;;;14.32;;
62941;SDS011;49042;47.318;19.874;2022-12-07T01:45:34;27.67;;;15.10;;
62941;SDS011;49042;47.318;19.874;2022-12-07T01:48:39;21.92;;;13.65;;
62941;SDS011;49042;47.318;19.874;2022-12-07T01:51:43;24.70;;;12.85;;
62941;SDS011;49042;47.318;19.874;2022-12-07T01:54:48;21.65;;;13.18;;
62941;SDS011;49042;47.318;19.874;2022-12-07T01:57:54;26.00;;;15.10;;
62941;SDS011;49042;47.318;19.874;2022-12-07T02:00:56;21.37;;;13.15;;
62941;SDS011;49042;47.318;19.874;2022-12-07T02:03:58;26.85;;;13.90;;
62941;SDS011;49042;47.318;19.874;2022-12-07T02:07:00;23.50;;;12.70;;
62941;SDS011;49042;47.318;19.874;2022-12-07T02:13:26;23.65;;;13.40;;
62941;SDS011;49042;47.318;19.874;2022-12-07T02:23:40;18.98;;;12.05;;
62941;SDS011;49042;47.318;19.874;2022-12-07T02:33:44;26.02;;;12.00;;
62941;SDS011;49042;47.318;19.874;2022-12-07T02:36:52;17.35;;;11.90;;
62941;SDS011;49042;47.318;19.874;2022-12-07T02:43:23;18.55;;;11.20;;
62941;SDS011;49042;47.318;19.874;2022-12-07T02:46:30;19.98;;;11.50;;
62941;SDS011;49042;47.318;19.874;2022-12-07T02:49:35;21.50;;;12.35;;
62941;SDS011;49042;47.318;19.874;2022-12-07T02:52:39;21.67;;;12.00;;
62941;SDS011;49042;47.318;19.874;2022-12-07T02:55:40;20.83;;;11.82;;
62941;SDS011;49042;47.318;19.874;2022-12-07T03:02:08;19.33;;;12.32;;
62941;SDS011;49042;47.318;19.874;2022-12-07T03:08:47;23.23;;;12.30;;
62941;SDS011;49042;47.318;19.874;2022-12-07T03:12:01;20.23;;;12.35;;
62941;SDS011;49042;47.318;19.874;2022-12-07T03:15:22;20.02;;;12.13;;
62941;SDS011;49042;47.318;19.874;2022-12-07T03:18:29;20.42;;;11.48;;
62941;SDS011;49042;47.318;19.874;2022-12-07T03:21:41;18.65;;;11.50;;
62941;SDS011;49042;47.318;19.874;2022-12-07T03:24:54;23.48;;;12.60;;
62941;SDS011;49042;47.318;19.874;2022-12-07T03:28:00;21.50;;;12.18;;
62941;SDS011;49042;47.318;19.874;2022-12-07T03:31:15;19.87;;;11.77;;
62941;SDS011;49042;47.318;19.874;2022-12-07T03:34:40;18.27;;;11.15;;
62941;SDS011;49042;47.318;19.874;2022-12-07T03:37:51;22.05;;;11.05;;
62941;SDS011;49042;47.318;19.874;2022-12-07T03:41:01;21.95;;;11.93;;
62941;SDS011;49042;47.318;19.874;2022-12-07T03:44:10;24.55;;;12.52;;
62941;SDS011;49042;47.318;19.874;2022-12-07T03:50:28;18.80;;;11.73;;
62941;SDS011;49042;47.318;19.874;2022-12-07T03:53:39;17.10;;;11.02;;
62941;SDS011;49042;47.318;19.874;2022-12-07T03:56:46;17.87;;;11.52;;
62941;SDS011;49042;47.318;19.874;2022-12-07T03:59:50;18.30;;;11.00;;
62941;SDS011;49042;47.318;19.874;2022-12-07T04:02:53;20.62;;;12.20;;
62941;SDS011;49042;47.318;19.874;2022-12-07T04:05:54;19.17;;;11.95;;
62941;SDS011;49042;47.318;19.874;2022-12-07T04:08:56;18.95;;;11.65;;
62941;SDS011;49042;47.318;19.874;2022-12-07T04:11:58;21.45;;;12.45;;
62941;SDS011;49042;47.318;19.874;2022-12-07T04:15:00;20.23;;;11.38;;
62941;SDS011;49042;47.318;19.874;2022-12-07T04:18:01;19.70;;;11.45;;
62941;SDS011;49042;47.318;19.874;2022-12-07T04:21:03;20.70;;;11.05;;
62941;SDS011;49042;47.318;19.874;2022-12-07T04:24:05;19.17;;;11.20;;
62941;SDS011;49042;47.318;19.874;2022-12-07T04:27:07;18.52;;;11.00;;
62941;SDS011;49042;47.318;19.874;2022-12-07T04:30:08;18.60;;;11.95;;
62941;SDS011;49042;47.318;19.874;2022-12-07T04:33:10;26.23;;;11.75;;
62941;SDS011;49042;47.318;19.874;2022-12-07T04:36:12;17.50;;;11.35;;
62941;SDS011;49042;47.318;19.874;2022-12-07T04:39:18;21.30;;;12.95;;
62941;SDS011;49042;47.318;19.874;2022-12-07T04:42:29;21.87;;;12.05;;
62941;SDS011;49042;47.318;19.874;2022-12-07T04:45:31;16.73;;;11.30;;
62941;SDS011;49042;47.318;19.874;2022-12-07T04:48:33;18.95;;;11.38;;
62941;SDS011;49042;47.318;19.874;2022-12-07T04:51:34;19.12;;;11.73;;
62941;SDS011;49042;47.318;19.874;2022-12-07T04:54:36;19.98;;;11.07;;
62941;SDS011;49042;47.318;19.874;2022-12-07T04:57:37;18.37;;;10.70;;
62941;SDS011;49042;47.318;19.874;2022-12-07T05:00:39;20.23;;;12.02;;
62941;SDS011;49042;47.318;19.874;2022-12-07T05:03:41;19.65;;;11.20;;
62941;SDS011;49042;47.318;19.874;2022-12-07T05:06:43;22.45;;;11.52;;
62941;SDS011;49042;47.318;19.874;2022-12-07T05:09:45;19.10;;;11.60;;
62941;SDS011;49042;47.318;19.874;2022-12-07T05:12:47;17.80;;;10.80;;
62941;SDS011;49042;47.318;19.874;2022-12-07T05:15:48;24.15;;;11.80;;
62941;SDS011;49042;47.318;19.874;2022-12-07T05:18:50;17.45;;;11.45;;
62941;SDS011;49042;47.318;19.874;2022-12-07T05:21:51;20.73;;;11.73;;
62941;SDS011;49042;47.318;19.874;2022-12-07T05:24:54;18.20;;;11.02;;
62941;SDS011;49042;47.318;19.874;2022-12-07T05:27:56;18.80;;;11.10;;
62941;SDS011;49042;47.318;19.874;2022-12-07T05:30:58;19.27;;;11.10;;
62941;SDS011;49042;47.318;19.874;2022-12-07T05:34:00;21.20;;;11.93;;
62941;SDS011;49042;47.318;19.874;2022-12-07T05:37:02;21.92;;;11.77;;
62941;SDS011;49042;47.318;19.874;2022-12-07T05:40:04;21.45;;;11.43;;
62941;SDS011;49042;47.318;19.874;2022-12-07T05:43:06;23.65;;;11.65;;
62941;SDS011;49042;47.318;19.874;2022-12-07T05:46:08;19.48;;;11.93;;
62941;SDS011;49042;47.318;19.874;2022-12-07T05:49:10;17.02;;;11.45;;
62941;SDS011;49042;47.318;19.874;2022-12-07T05:52:11;21.80;;;11.90;;
62941;SDS011;49042;47.318;19.874;2022-12-07T05:55:13;20.62;;;11.55;;
62941;SDS011;49042;47.318;19.874;2022-12-07T05:58:15;19.25;;;10.85;;
62941;SDS011;49042;47.318;19.874;2022-12-07T06:01:35;19.30;;;11.27;;
62941;SDS011;49042;47.318;19.874;2022-12-07T06:04:39;20.50;;;11.35;;
62941;SDS011;49042;47.318;19.874;2022-12-07T06:07:43;22.23;;;11.90;;
62941;SDS011;49042;47.318;19.874;2022-12-07T06:10:44;18.75;;;11.90;;
62941;SDS011;49042;47.318;19.874;2022-12-07T06:13:48;17.95;;;12.43;;
62941;SDS011;49042;47.318;19.874;2022-12-07T06:16:49;24.67;;;14.43;;
62941;SDS011;49042;47.318;19.874;2022-12-07T06:19:51;24.77;;;13.13;;
62941;SDS011;49042;47.318;19.874;2022-12-07T06:22:53;28.55;;;14.43;;
62941;SDS011;49042;47.318;19.874;2022-12-07T06:25:54;24.73;;;14.02;;
62941;SDS011;49042;47.318;19.874;2022-12-07T06:28:56;22.33;;;13.05;;
62941;SDS011;49042;47.318;19.874;2022-12-07T06:31:58;25.48;;;13.50;;
62941;SDS011;49042;47.318;19.874;2022-12-07T06:35:00;26.35;;;14.30;;
62941;SDS011;49042;47.318;19.874;2022-12-07T06:38:02;23.35;;;13.75;;
62941;SDS011;49042;47.318;19.874;2022-12-07T06:41:03;25.77;;;14.20;;
62941;SDS011;49042;47.318;19.874;2022-12-07T06:44:06;22.58;;;14.57;;
62941;SDS011;49042;47.318;19.874;2022-12-07T06:47:08;26.58;;;14.35;;
62941;SDS011;49042;47.318;19.874;2022-12-07T06:50:30;23.90;;;14.85;;
62941;SDS011;49042;47.318;19.874;2022-12-07T06:53:32;24.33;;;12.45;;
62941;SDS011;49042;47.318;19.874;2022-12-07T06:56:33;23.05;;;13.02;;
62941;SDS011;49042;47.318;19.874;2022-12-07T06:59:35;24.05;;;13.23;;
62941;SDS011;49042;47.318;19.874;2022-12-07T07:02:37;22.40;;;12.75;;
62941;SDS011;49042;47.318;19.874;2022-12-07T07:05:38;21.52;;;12.63;;
62941;SDS011;49042;47.318;19.874;2022-12-07T07:08:40;28.52;;;13.95;;
62941;SDS011;49042;47.318;19.874;2022-12-07T07:11:42;26.45;;;13.02;;
62941;SDS011;49042;47.318;19.874;2022-12-07T07:14:44;23.87;;;11.98;;
62941;SDS011;49042;47.318;19.874;2022-12-07T07:17:46;24.05;;;12.32;;
62941;SDS011;49042;47.318;19.874;2022-12-07T07:20:47;21.15;;;12.05;;
62941;SDS011;49042;47.318;19.874;2022-12-07T07:23:49;20.95;;;11.55;;
62941;SDS011;49042;47.318;19.874;2022-12-07T07:26:50;18.23;;;11.57;;
62941;SDS011;49042;47.318;19.874;2022-12-07T07:29:52;25.00;;;11.98;;
62941;SDS011;49042;47.318;19.874;2022-12-07T07:32:57;20.17;;;11.18;;
62941;SDS011;49042;47.318;19.874;2022-12-07T07:36:00;17.87;;;11.18;;
62941;SDS011;49042;47.318;19.874;2022-12-07T07:39:01;20.58;;;10.93;;
62941;SDS011;49042;47.318;19.874;2022-12-07T07:42:03;22.35;;;12.37;;
62941;SDS011;49042;47.318;19.874;2022-12-07T07:45:05;21.67;;;12.85;;
62941;SDS011;49042;47.318;19.874;2022-12-07T07:48:07;23.02;;;12.82;;
62941;SDS011;49042;47.318;19.874;2022-12-07T07:51:09;21.20;;;12.98;;
62941;SDS011;49042;47.318;19.874;2022-12-07T07:54:11;22.48;;;12.95;;
62941;SDS011;49042;47.318;19.874;2022-12-07T07:57:13;22.98;;;13.10;;
62941;SDS011;49042;47.318;19.874;2022-12-07T08:00:14;20.90;;;12.35;;
62941;SDS011;49042;47.318;19.874;2022-12-07T08:03:17;20.20;;;12.98;;
62941;SDS011;49042;47.318;19.874;2022-12-07T08:06:19;19.90;;;13.25;;
62941;SDS011;49042;47.318;19.874;2022-12-07T08:09:20;21.48;;;12.52;;
62941;SDS011;49042;47.318;19.874;2022-12-07T08:12:22;25.00;;;12.73;;
62941;SDS011;49042;47.318;19.874;2022-12-07T08:15:24;20.73;;;13.20;;
62941;SDS011;49042;47.318;19.874;2022-12-07T08:18:27;23.52;;;12.77;;
62941;SDS011;49042;47.318;19.874;2022-12-07T08:21:28;22.37;;;13.45;;
62941;SDS011;49042;47.318;19.874;2022-12-07T08:24:32;23.27;;;13.10;;
62941;SDS011;49042;47.318;19.874;2022-12-07T08:27:35;22.77;;;13.25;;
62941;SDS011;49042;47.318;19.874;2022-12-07T08:30:37;23.40;;;13.00;;
62941;SDS011;49042;47.318;19.874;2022-12-07T08:33:39;23.70;;;13.55;;
62941;SDS011;49042;47.318;19.874;2022-12-07T08:36:41;21.83;;;13.75;;
62941;SDS011;49042;47.318;19.874;2022-12-07T08:39:42;23.30;;;13.62;;
62941;SDS011;49042;47.318;19.874;2022-12-07T08:42:48;23.58;;;13.50;;
62941;SDS011;49042;47.318;19.874;2022-12-07T08:45:53;24.10;;;14.00;;
62941;SDS011;49042;47.318;19.874;2022-12-07T08:49:13;21.30;;;13.60;;
62941;SDS011;49042;47.318;19.874;2022-12-07T08:52:23;23.50;;;13.87;;
62941;SDS011;49042;47.318;19.874;2022-12-07T08:55:25;30.85;;;14.10;;
62941;SDS011;49042;47.318;19.874;2022-12-07T08:58:28;25.27;;;13.35;;
62941;SDS011;49042;47.318;19.874;2022-12-07T09:01:30;23.30;;;13.98;;
62941;SDS011;49042;47.318;19.874;2022-12-07T09:04:31;25.27;;;14.75;;
62941;SDS011;49042;47.318;19.874;2022-12-07T09:07:33;24.25;;;15.20;;
62941;SDS011;49042;47.318;19.874;2022-12-07T09:10:35;23.10;;;13.85;;
62941;SDS011;49042;47.318;19.874;2022-12-07T09:13:37;25.58;;;16.08;;
62941;SDS011;49042;47.318;19.874;2022-12-07T09:16:39;21.95;;;14.13;;
62941;SDS011;49042;47.318;19.874;2022-12-07T09:19:41;21.55;;;13.40;;
62941;SDS011;49042;47.318;19.874;2022-12-07T09:22:43;23.90;;;13.80;;
62941;SDS011;49042;47.318;19.874;2022-12-07T09:25:45;21.08;;;13.52;;
62941;SDS011;49042;47.318;19.874;2022-12-07T09:28:47;24.58;;;13.90;;
62941;SDS011;49042;47.318;19.874;2022-12-07T09:31:48;22.52;;;13.50;;
62941;SDS011;49042;47.318;19.874;2022-12-07T09:34:50;20.52;;;12.95;;
62941;SDS011;49042;47.318;19.874;2022-12-07T09:37:52;22.23;;;12.82;;
62941;SDS011;49042;47.318;19.874;2022-12-07T09:40:54;18.92;;;13.32;;
62941;SDS011;49042;47.318;19.874;2022-12-07T09:44:06;18.25;;;12.75;;
62941;SDS011;49042;47.318;19.874;2022-12-07T09:47:12;18.52;;;12.25;;
62941;SDS011;49042;47.318;19.874;2022-12-07T09:50:19;19.00;;;12.68;;
62941;SDS011;49042;47.318;19.874;2022-12-07T09:53:28;21.55;;;12.95;;
62941;SDS011;49042;47.318;19.874;2022-12-07T09:56:34;16.90;;;11.73;;
62941;SDS011;49042;47.318;19.874;2022-12-07T09:59:36;19.08;;;12.90;;
62941;SDS011;49042;47.318;19.874;2022-12-07T10:02:39;19.95;;;12.65;;
62941;SDS011;49042;47.318;19.874;2022-12-07T10:05:56;17.42;;;12.80;;
62941;SDS011;49042;47.318;19.874;2022-12-07T10:08:58;17.65;;;12.00;;
62941;SDS011;49042;47.318;19.874;2022-12-07T10:12:10;17.55;;;13.10;;
62941;SDS011;49042;47.318;19.874;2022-12-07T10:15:13;19.98;;;12.57;;
62941;SDS011;49042;47.318;19.874;2022-12-07T10:18:34;20.52;;;12.60;;
62941;SDS011;49042;47.318;19.874;2022-12-07T10:21:38;21.75;;;11.95;;
62941;SDS011;49042;47.318;19.874;2022-12-07T10:24:41;17.62;;;11.45;;
62941;SDS011;49042;47.318;19.874;2022-12-07T10:27:45;17.45;;;11.77;;
62941;SDS011;49042;47.318;19.874;2022-12-07T10:31:00;16.67;;;11.60;;
62941;SDS011;49042;47.318;19.874;2022-12-07T10:34:11;16.33;;;9.70;;
62941;SDS011;49042;47.318;19.874;2022-12-07T10:43:34;14.35;;;10.25;;
62941;SDS011;49042;47.318;19.874;2022-12-07T10:46:54;15.60;;;10.35;;
62941;SDS011;49042;47.318;19.874;2022-12-07T11:09:39;20.37;;;10.82;;
62941;SDS011;49042;47.318;19.874;2022-12-07T11:13:41;11.68;;;8.45;;
62941;SDS011;49042;47.318;19.874;2022-12-07T11:27:07;16.00;;;10.75;;
62941;SDS011;49042;47.318;19.874;2022-12-07T11:30:23;20.52;;;10.50;;
62941;SDS011;49042;47.318;19.874;2022-12-07T11:33:41;14.23;;;9.07;;
62941;SDS011;49042;47.318;19.874;2022-12-07T11:36:48;13.25;;;9.07;;
62941;SDS011;49042;47.318;19.874;2022-12-07T11:39:59;17.80;;;9.60;;
62941;SDS011;49042;47.318;19.874;2022-12-07T11:43:24;12.98;;;8.75;;
62941;SDS011;49042;47.318;19.874;2022-12-07T11:59:16;13.95;;;9.32;;
62941;SDS011;49042;47.318;19.874;2022-12-07T12:05:57;17.27;;;8.82;;
62941;SDS011;49042;47.318;19.874;2022-12-07T12:09:15;13.52;;;9.23;;
62941;SDS011;49042;47.318;19.874;2022-12-07T12:19:42;13.60;;;8.60;;
62941;SDS011;49042;47.318;19.874;2022-12-07T12:23:27;12.63;;;8.85;;
62941;SDS011;49042;47.318;19.874;2022-12-07T12:26:17;12.15;;;9.43;;
62941;SDS011;49042;47.318;19.874;2022-12-07T12:29:24;14.35;;;8.45;;
62941;SDS011;49042;47.318;19.874;2022-12-07T12:35:40;24.35;;;18.37;;
62941;SDS011;49042;47.318;19.874;2022-12-07T12:41:59;12.07;;;8.40;;
62941;SDS011;49042;47.318;19.874;2022-12-07T12:48:29;14.47;;;9.03;;
62941;SDS011;49042;47.318;19.874;2022-12-07T12:51:39;12.40;;;8.27;;
62941;SDS011;49042;47.318;19.874;2022-12-07T12:54:57;17.70;;;11.55;;
62941;SDS011;49042;47.318;19.874;2022-12-07T13:04:38;11.77;;;8.93;;
62941;SDS011;49042;47.318;19.874;2022-12-07T13:11:15;14.63;;;8.68;;
62941;SDS011;49042;47.318;19.874;2022-12-07T13:17:54;11.85;;;8.02;;
62941;SDS011;49042;47.318;19.874;2022-12-07T13:24:01;12.45;;;8.27;;
62941;SDS011;49042;47.318;19.874;2022-12-07T13:27:08;12.88;;;8.23;;
62941;SDS011;49042;47.318;19.874;2022-12-07T13:30:17;12.10;;;7.68;;
62941;SDS011;49042;47.318;19.874;2022-12-07T13:33:20;12.07;;;8.30;;
62941;SDS011;49042;47.318;19.874;2022-12-07T13:36:23;17.62;;;8.88;;
62941;SDS011;49042;47.318;19.874;2022-12-07T13:39:32;14.43;;;9.75;;
62941;SDS011;49042;47.318;19.874;2022-12-07T13:42:36;13.43;;;8.82;;
62941;SDS011;49042;47.318;19.874;2022-12-07T13:45:38;12.75;;;8.85;;
62941;SDS011;49042;47.318;19.874;2022-12-07T13:48:52;15.10;;;9.18;;
62941;SDS011;49042;47.318;19.874;2022-12-07T13:51:54;15.45;;;9.77;;
62941;SDS011;49042;47.318;19.874;2022-12-07T13:55:17;21.95;;;15.55;;
62941;SDS011;49042;47.318;19.874;2022-12-07T13:58:19;19.80;;;11.40;;
62941;SDS011;49042;47.318;19.874;2022-12-07T14:01:20;15.27;;;10.27;;
62941;SDS011;49042;47.318;19.874;2022-12-07T14:04:35;17.77;;;10.65;;
62941;SDS011;49042;47.318;19.874;2022-12-07T14:10:58;16.10;;;11.48;;
62941;SDS011;49042;47.318;19.874;2022-12-07T14:14:01;17.55;;;11.27;;
62941;SDS011;49042;47.318;19.874;2022-12-07T14:17:21;16.77;;;10.30;;
62941;SDS011;49042;47.318;19.874;2022-12-07T14:21:01;20.45;;;11.07;;
62941;SDS011;49042;47.318;19.874;2022-12-07T14:27:30;20.75;;;12.10;;
62941;SDS011;49042;47.318;19.874;2022-12-07T14:30:35;19.48;;;12.15;;
62941;SDS011;49042;47.318;19.874;2022-12-07T14:33:36;20.25;;;12.55;;
62941;SDS011;49042;47.318;19.874;2022-12-07T14:36:39;21.02;;;11.88;;
62941;SDS011;49042;47.318;19.874;2022-12-07T14:39:41;18.35;;;11.90;;
62941;SDS011;49042;47.318;19.874;2022-12-07T14:42:42;19.42;;;12.40;;
62941;SDS011;49042;47.318;19.874;2022-12-07T14:45:46;18.52;;;11.75;;
62941;SDS011;49042;47.318;19.874;2022-12-07T14:48:48;19.40;;;12.32;;
62941;SDS011;49042;47.318;19.874;2022-12-07T14:52:12;22.87;;;13.43;;
62941;SDS011;49042;47.318;19.874;2022-12-07T14:55:37;20.93;;;12.77;;
62941;SDS011;49042;47.318;19.874;2022-12-07T14:58:39;25.55;;;13.48;;
62941;SDS011;49042;47.318;19.874;2022-12-07T15:01:42;24.27;;;13.07;;
62941;SDS011;49042;47.318;19.874;2022-12-07T15:04:43;20.42;;;13.07;;
62941;SDS011;49042;47.318;19.874;2022-12-07T15:07:46;26.52;;;12.70;;
62941;SDS011;49042;47.318;19.874;2022-12-07T15:10:48;20.73;;;13.13;;
62941;SDS011;49042;47.318;19.874;2022-12-07T15:13:50;25.27;;;13.75;;
62941;SDS011;49042;47.318;19.874;2022-12-07T15:17:10;22.40;;;13.65;;
62941;SDS011;49042;47.318;19.874;2022-12-07T15:20:28;22.37;;;13.73;;
62941;SDS011;49042;47.318;19.874;2022-12-07T15:23:29;22.52;;;14.13;;
62941;SDS011;49042;47.318;19.874;2022-12-07T15:26:32;24.35;;;14.43;;
62941;SDS011;49042;47.318;19.874;2022-12-07T15:29:34;25.42;;;14.82;;
62941;SDS011;49042;47.318;19.874;2022-12-07T15:32:35;25.92;;;14.95;;
62941;SDS011;49042;47.318;19.874;2022-12-07T15:35:41;35.92;;;23.00;;
62941;SDS011;49042;47.318;19.874;2022-12-07T15:38:45;23.80;;;13.62;;
62941;SDS011;49042;47.318;19.874;2022-12-07T15:42:07;21.12;;;13.25;;
62941;SDS011;49042;47.318;19.874;2022-12-07T15:45:09;25.45;;;13.98;;
62941;SDS011;49042;47.318;19.874;2022-12-07T15:48:11;26.55;;;13.23;;
62941;SDS011;49042;47.318;19.874;2022-12-07T15:51:33;25.00;;;14.15;;
62941;SDS011;49042;47.318;19.874;2022-12-07T15:54:34;24.02;;;13.57;;
62941;SDS011;49042;47.318;19.874;2022-12-07T15:57:37;22.60;;;13.25;;
62941;SDS011;49042;47.318;19.874;2022-12-07T16:00:39;22.73;;;14.32;;
62941;SDS011;49042;47.318;19.874;2022-12-07T16:03:41;20.67;;;13.35;;
62941;SDS011;49042;47.318;19.874;2022-12-07T16:06:43;22.25;;;13.73;;
62941;SDS011;49042;47.318;19.874;2022-12-07T16:09:46;24.00;;;14.68;;
62941;SDS011;49042;47.318;19.874;2022-12-07T16:12:48;30.33;;;17.52;;
62941;SDS011;49042;47.318;19.874;2022-12-07T16:15:50;21.60;;;13.75;;
62941;SDS011;49042;47.318;19.874;2022-12-07T16:18:52;24.40;;;15.30;;
62941;SDS011;49042;47.318;19.874;2022-12-07T16:21:53;32.83;;;19.80;;
62941;SDS011;49042;47.318;19.874;2022-12-07T16:24:55;30.62;;;17.35;;
62941;SDS011;49042;47.318;19.874;2022-12-07T16:27:56;22.35;;;14.32;;
62941;SDS011;49042;47.318;19.874;2022-12-07T16:31:05;30.00;;;16.30;;
62941;SDS011;49042;47.318;19.874;2022-12-07T16:34:15;27.50;;;16.23;;
62941;SDS011;49042;47.318;19.874;2022-12-07T16:37:17;23.05;;;14.55;;
62941;SDS011;49042;47.318;19.874;2022-12-07T16:40:19;22.87;;;14.07;;
62941;SDS011;49042;47.318;19.874;2022-12-07T16:43:20;24.83;;;14.13;;
62941;SDS011;49042;47.318;19.874;2022-12-07T16:46:22;25.62;;;14.13;;
62941;SDS011;49042;47.318;19.874;2022-12-07T16:49:24;23.30;;;13.82;;
62941;SDS011;49042;47.318;19.874;2022-12-07T16:52:26;22.62;;;14.80;;
62941;SDS011;49042;47.318;19.874;2022-12-07T16:55:28;27.62;;;15.65;;
62941;SDS011;49042;47.318;19.874;2022-12-07T16:58:30;29.37;;;16.60;;
62941;SDS011;49042;47.318;19.874;2022-12-07T17:01:32;28.08;;;16.67;;
62941;SDS011;49042;47.318;19.874;2022-12-07T17:04:35;26.70;;;15.23;;
62941;SDS011;49042;47.318;19.874;2022-12-07T17:07:39;30.60;;;14.02;;
62941;SDS011;49042;47.318;19.874;2022-12-07T17:10:42;24.87;;;15.18;;
62941;SDS011;49042;47.318;19.874;2022-12-07T17:13:45;26.08;;;15.63;;
62941;SDS011;49042;47.318;19.874;2022-12-07T17:17:06;38.65;;;22.83;;
62941;SDS011;49042;47.318;19.874;2022-12-07T17:20:08;48.90;;;26.23;;
62941;SDS011;49042;47.318;19.874;2022-12-07T17:23:11;58.78;;;30.92;;
62941;SDS011;49042;47.318;19.874;2022-12-07T17:26:14;42.53;;;21.77;;
62941;SDS011;49042;47.318;19.874;2022-12-07T17:29:18;33.45;;;19.45;;
62941;SDS011;49042;47.318;19.874;2022-12-07T17:32:19;31.10;;;18.50;;
62941;SDS011;49042;47.318;19.874;2022-12-07T17:35:21;34.70;;;18.70;;
62941;SDS011;49042;47.318;19.874;2022-12-07T17:38:23;38.95;;;19.67;;
62941;SDS011;49042;47.318;19.874;2022-12-07T17:41:28;35.00;;;19.35;;
62941;SDS011;49042;47.318;19.874;2022-12-07T17:44:50;33.05;;;18.37;;
62941;SDS011;49042;47.318;19.874;2022-12-07T17:47:51;30.12;;;16.62;;
62941;SDS011;49042;47.318;19.874;2022-12-07T17:50:54;30.67;;;17.65;;
62941;SDS011;49042;47.318;19.874;2022-12-07T17:54:20;31.98;;;17.08;;
62941;SDS011;49042;47.318;19.874;2022-12-07T17:57:23;30.30;;;17.20;;
62941;SDS011;49042;47.318;19.874;2022-12-07T18:00:25;33.65;;;17.52;;
62941;SDS011;49042;47.318;19.874;2022-12-07T18:03:27;37.90;;;19.12;;
62941;SDS011;49042;47.318;19.874;2022-12-07T18:06:28;45.97;;;23.02;;
62941;SDS011;49042;47.318;19.874;2022-12-07T18:09:31;56.80;;;28.48;;
62941;SDS011;49042;47.318;19.874;2022-12-07T18:12:33;48.30;;;26.67;;
62941;SDS011;49042;47.318;19.874;2022-12-07T18:15:35;41.85;;;21.62;;
62941;SDS011;49042;47.318;19.874;2022-12-07T18:18:37;42.55;;;23.12;;
62941;SDS011;49042;47.318;19.874;2022-12-07T18:21:40;42.00;;;24.33;;
62941;SDS011;49042;47.318;19.874;2022-12-07T18:24:42;38.67;;;20.62;;
62941;SDS011;49042;47.318;19.874;2022-12-07T18:27:44;33.25;;;19.85;;
62941;SDS011;49042;47.318;19.874;2022-12-07T18:30:46;34.80;;;19.42;;
62941;SDS011;49042;47.318;19.874;2022-12-07T18:34:12;33.50;;;18.85;;
62941;SDS011;49042;47.318;19.874;2022-12-07T18:37:15;36.30;;;20.25;;
62941;SDS011;49042;47.318;19.874;2022-12-07T18:40:17;40.58;;;21.62;;
62941;SDS011;49042;47.318;19.874;2022-12-07T18:43:20;40.25;;;21.20;;
62941;SDS011;49042;47.318;19.874;2022-12-07T18:46:26;39.97;;;20.23;;
62941;SDS011;49042;47.318;19.874;2022-12-07T18:49:28;41.80;;;20.42;;
62941;SDS011;49042;47.318;19.874;2022-12-07T18:52:30;43.65;;;21.85;;
62941;SDS011;49042;47.318;19.874;2022-12-07T18:55:32;43.45;;;21.75;;
62941;SDS011;49042;47.318;19.874;2022-12-07T18:58:35;35.03;;;20.60;;
62941;SDS011;49042;47.318;19.874;2022-12-07T19:01:37;37.50;;;20.98;;
62941;SDS011;49042;47.318;19.874;2022-12-07T19:04:40;38.53;;;22.42;;
62941;SDS011;49042;47.318;19.874;2022-12-07T19:07:43;37.95;;;21.45;;
62941;SDS011;49042;47.318;19.874;2022-12-07T19:10:47;38.97;;;21.67;;
62941;SDS011;49042;47.318;19.874;2022-12-07T19:13:48;48.55;;;21.65;;
62941;SDS011;49042;47.318;19.874;2022-12-07T19:16:52;41.63;;;23.10;;
62941;SDS011;49042;47.318;19.874;2022-12-07T19:19:56;45.38;;;22.73;;
62941;SDS011;49042;47.318;19.874;2022-12-07T19:22:58;38.95;;;20.55;;
62941;SDS011;49042;47.318;19.874;2022-12-07T19:26:01;39.17;;;21.37;;
62941;SDS011;49042;47.318;19.874;2022-12-07T19:29:04;43.17;;;23.00;;
62941;SDS011;49042;47.318;19.874;2022-12-07T19:32:07;40.20;;;21.87;;
62941;SDS011;49042;47.318;19.874;2022-12-07T19:35:10;33.53;;;20.48;;
62941;SDS011;49042;47.318;19.874;2022-12-07T19:38:14;37.33;;;20.55;;
62941;SDS011;49042;47.318;19.874;2022-12-07T19:41:16;41.00;;;21.40;;
62941;SDS011;49042;47.318;19.874;2022-12-07T19:44:38;34.53;;;20.08;;
62941;SDS011;49042;47.318;19.874;2022-12-07T19:47:40;41.78;;;20.40;;
62941;SDS011;49042;47.318;19.874;2022-12-07T19:50:42;36.47;;;18.85;;
62941;SDS011;49042;47.318;19.874;2022-12-07T19:53:45;36.13;;;18.73;;